sensor_id;sensor_type;location;lat;lon;timestamp;temperature;humidity
34153;DHT22;20426;48.372;10.888;2022-10-19T00:00:09;15.00;99.90
34153;DHT22;20426;48.372;10.888;2022-10-19T00:00:40;15.00;99.90
34153;DHT22;20426;48.372;10.888;2022-10-19T00:01:45;14.90;99.90
34153;DHT22;20426;48.372;10.888;2022-10-19T00:02:16;15.00;99.90
34153;DHT22;20426;48.372;10.888;2022-10-19T00:02:47;15.00;99.90
34153;DHT22;20426;48.372;10.888;2022-10-19T00:03:18;14.90;99.90
34153;DHT22;20426;48.372;10.888;2022-10-19T00:03:51;15.00;99.90
34153;DHT22;20426;48.372;10.888;2022-10-19T00:04:22;15.00;99.90
34153;DHT22;20426;48.372;10.888;2022-10-19T00:04:53;14.90;99.90
34153;DHT22;20426;48.372;10.888;2022-10-19T00:05:23;14.90;99.90
34153;DHT22;20426;48.372;10.888;2022-10-19T00:05:54;14.90;99.90
34153;DHT22;20426;48.372;10.888;2022-10-19T00:06:33;14.90;99.90
34153;DHT22;20426;48.372;10.888;2022-10-19T00:07:04;14.90;99.90
34153;DHT22;20426;48.372;10.888;2022-10-19T00:07:34;14.90;99.90
34153;DHT22;20426;48.372;10.888;2022-10-19T00:08:05;14.90;99.90
34153;DHT22;20426;48.372;10.888;2022-10-19T00:08:36;14.90;99.90
34153;DHT22;20426;48.372;10.888;2022-10-19T00:09:10;14.90;99.90
34153;DHT22;20426;48.372;10.888;2022-10-19T00:09:43;14.90;99.90
34153;DHT22;20426;48.372;10.888;2022-10-19T00:10:14;14.90;99.90
34153;DHT22;20426;48.372;10.888;2022-10-19T00:10:44;14.90;99.90
34153;DHT22;20426;48.372;10.888;2022-10-19T00:11:15;14.90;99.90
34153;DHT22;20426;48.372;10.888;2022-10-19T00:11:48;14.90;99.90
34153;DHT22;20426;48.372;10.888;2022-10-19T00:12:19;14.90;99.90
34153;DHT22;20426;48.372;10.888;2022-10-19T00:12:49;14.80;99.90
34153;DHT22;20426;48.372;10.888;2022-10-19T00:13:20;14.80;99.90
34153;DHT22;20426;48.372;10.888;2022-10-19T00:13:52;14.80;99.90
34153;DHT22;20426;48.372;10.888;2022-10-19T00:14:23;14.80;99.90
34153;DHT22;20426;48.372;10.888;2022-10-19T00:14:55;14.80;99.90
34153;DHT22;20426;48.372;10.888;2022-10-19T00:15:26;14.80;99.90
34153;DHT22;20426;48.372;10.888;2022-10-19T00:15:57;14.70;99.90
34153;DHT22;20426;48.372;10.888;2022-10-19T00:16:31;14.80;99.90
34153;DHT22;20426;48.372;10.888;2022-10-19T00:17:02;14.70;99.90
34153;DHT22;20426;48.372;10.888;2022-10-19T00:17:33;14.70;99.90
34153;DHT22;20426;48.372;10.888;2022-10-19T00:18:05;14.70;99.90
34153;DHT22;20426;48.372;10.888;2022-10-19T00:18:36;14.70;99.90
34153;DHT22;20426;48.372;10.888;2022-10-19T00:19:10;14.60;99.90
34153;DHT22;20426;48.372;10.888;2022-10-19T00:19:41;14.60;99.90
34153;DHT22;20426;48.372;10.888;2022-10-19T00:20:12;14.60;99.90
34153;DHT22;20426;48.372;10.888;2022-10-19T00:20:43;14.60;99.90
34153;DHT22;20426;48.372;10.888;2022-10-19T00:21:16;14.60;99.90
34153;DHT22;20426;48.372;10.888;2022-10-19T00:21:47;14.60;99.90
34153;DHT22;20426;48.372;10.888;2022-10-19T00:22:18;14.60;99.90
34153;DHT22;20426;48.372;10.888;2022-10-19T00:22:49;14.60;99.90
34153;DHT22;20426;48.372;10.888;2022-10-19T00:23:20;14.60;99.90
34153;DHT22;20426;48.372;10.888;2022-10-19T00:23:52;14.60;99.90
34153;DHT22;20426;48.372;10.888;2022-10-19T00:24:23;14.60;99.90
34153;DHT22;20426;48.372;10.888;2022-10-19T00:24:55;14.60;99.90
34153;DHT22;20426;48.372;10.888;2022-10-19T00:25:27;14.50;99.90
34153;DHT22;20426;48.372;10.888;2022-10-19T00:25:57;14.60;99.90
34153;DHT22;20426;48.372;10.888;2022-10-19T00:26:28;14.60;99.90
34153;DHT22;20426;48.372;10.888;2022-10-19T00:26:59;14.50;99.90
34153;DHT22;20426;48.372;10.888;2022-10-19T00:27:29;14.50;99.90
34153;DHT22;20426;48.372;10.888;2022-10-19T00:28:00;14.50;99.90
34153;DHT22;20426;48.372;10.888;2022-10-19T00:28:31;14.50;99.90
34153;DHT22;20426;48.372;10.888;2022-10-19T00:29:03;14.50;99.90
34153;DHT22;20426;48.372;10.888;2022-10-19T00:29:34;14.50;99.90
34153;DHT22;20426;48.372;10.888;2022-10-19T00:30:05;14.40;99.90
34153;DHT22;20426;48.372;10.888;2022-10-19T00:30:36;14.40;99.90
34153;DHT22;20426;48.372;10.888;2022-10-19T00:31:10;14.40;99.90
34153;DHT22;20426;48.372;10.888;2022-10-19T00:31:41;14.40;99.90
34153;DHT22;20426;48.372;10.888;2022-10-19T00:32:12;14.40;99.90
34153;DHT22;20426;48.372;10.888;2022-10-19T00:32:43;14.40;99.90
34153;DHT22;20426;48.372;10.888;2022-10-19T00:33:13;14.40;99.90
34153;DHT22;20426;48.372;10.888;2022-10-19T00:33:50;14.30;99.90
34153;DHT22;20426;48.372;10.888;2022-10-19T00:34:21;14.30;99.90
34153;DHT22;20426;48.372;10.888;2022-10-19T00:34:52;14.30;99.90
34153;DHT22;20426;48.372;10.888;2022-10-19T00:35:22;14.30;99.90
34153;DHT22;20426;48.372;10.888;2022-10-19T00:35:53;14.30;99.90
34153;DHT22;20426;48.372;10.888;2022-10-19T00:36:27;14.30;99.90
34153;DHT22;20426;48.372;10.888;2022-10-19T00:36:58;14.30;99.90
34153;DHT22;20426;48.372;10.888;2022-10-19T00:37:28;14.20;99.90
34153;DHT22;20426;48.372;10.888;2022-10-19T00:37:59;14.30;99.90
34153;DHT22;20426;48.372;10.888;2022-10-19T00:38:30;14.20;99.90
34153;DHT22;20426;48.372;10.888;2022-10-19T00:39:03;14.20;99.90
34153;DHT22;20426;48.372;10.888;2022-10-19T00:39:34;14.20;99.90
34153;DHT22;20426;48.372;10.888;2022-10-19T00:40:05;14.20;99.90
34153;DHT22;20426;48.372;10.888;2022-10-19T00:40:37;14.20;99.90
34153;DHT22;20426;48.372;10.888;2022-10-19T00:41:08;14.20;99.90
34153;DHT22;20426;48.372;10.888;2022-10-19T00:41:39;14.20;99.90
34153;DHT22;20426;48.372;10.888;2022-10-19T00:42:10;14.20;99.90
34153;DHT22;20426;48.372;10.888;2022-10-19T00:42:41;14.20;99.90
34153;DHT22;20426;48.372;10.888;2022-10-19T00:43:21;14.30;99.90
34153;DHT22;20426;48.372;10.888;2022-10-19T00:43:56;14.30;99.90
34153;DHT22;20426;48.372;10.888;2022-10-19T00:45:05;14.30;99.90
34153;DHT22;20426;48.372;10.888;2022-10-19T00:45:37;14.30;99.90
34153;DHT22;20426;48.372;10.888;2022-10-19T00:46:12;14.30;99.90
34153;DHT22;20426;48.372;10.888;2022-10-19T00:46:44;14.30;99.90
34153;DHT22;20426;48.372;10.888;2022-10-19T00:47:18;14.40;99.90
34153;DHT22;20426;48.372;10.888;2022-10-19T00:47:52;14.40;99.90
34153;DHT22;20426;48.372;10.888;2022-10-19T00:48:26;14.40;99.90
34153;DHT22;20426;48.372;10.888;2022-10-19T00:49:05;14.30;99.90
34153;DHT22;20426;48.372;10.888;2022-10-19T00:49:39;14.40;99.90
34153;DHT22;20426;48.372;10.888;2022-10-19T00:50:13;14.40;99.90
34153;DHT22;20426;48.372;10.888;2022-10-19T00:50:44;14.40;99.90
34153;DHT22;20426;48.372;10.888;2022-10-19T00:51:16;14.40;99.90
34153;DHT22;20426;48.372;10.888;2022-10-19T00:51:50;14.40;99.90
34153;DHT22;20426;48.372;10.888;2022-10-19T00:52:23;14.40;99.90
34153;DHT22;20426;48.372;10.888;2022-10-19T00:52:54;14.40;99.90
34153;DHT22;20426;48.372;10.888;2022-10-19T00:53:26;14.40;99.90
34153;DHT22;20426;48.372;10.888;2022-10-19T00:54:00;14.40;99.90
34153;DHT22;20426;48.372;10.888;2022-10-19T00:54:33;14.40;99.90
34153;DHT22;20426;48.372;10.888;2022-10-19T00:55:06;14.40;99.90
34153;DHT22;20426;48.372;10.888;2022-10-19T00:55:38;14.40;99.90
34153;DHT22;20426;48.372;10.888;2022-10-19T00:56:12;14.40;99.90
34153;DHT22;20426;48.372;10.888;2022-10-19T00:56:45;14.40;99.90
34153;DHT22;20426;48.372;10.888;2022-10-19T00:57:17;14.40;99.90
34153;DHT22;20426;48.372;10.888;2022-10-19T00:57:48;14.50;99.90
34153;DHT22;20426;48.372;10.888;2022-10-19T00:58:18;14.50;99.90
34153;DHT22;20426;48.372;10.888;2022-10-19T00:58:49;14.50;99.90
34153;DHT22;20426;48.372;10.888;2022-10-19T00:59:21;14.50;99.90
34153;DHT22;20426;48.372;10.888;2022-10-19T00:59:54;14.50;99.90
34153;DHT22;20426;48.372;10.888;2022-10-19T01:00:26;14.50;99.90
34153;DHT22;20426;48.372;10.888;2022-10-19T01:00:59;14.50;99.90
34153;DHT22;20426;48.372;10.888;2022-10-19T01:01:31;14.50;99.90
34153;DHT22;20426;48.372;10.888;2022-10-19T01:02:04;14.50;99.90
34153;DHT22;20426;48.372;10.888;2022-10-19T01:02:35;14.50;99.90
34153;DHT22;20426;48.372;10.888;2022-10-19T01:03:07;14.50;99.90
34153;DHT22;20426;48.372;10.888;2022-10-19T01:03:39;14.60;99.90
34153;DHT22;20426;48.372;10.888;2022-10-19T01:04:10;14.60;99.90
34153;DHT22;20426;48.372;10.888;2022-10-19T01:04:46;14.60;99.90
34153;DHT22;20426;48.372;10.888;2022-10-19T01:05:18;14.60;99.90
34153;DHT22;20426;48.372;10.888;2022-10-19T01:05:49;14.60;99.90
34153;DHT22;20426;48.372;10.888;2022-10-19T01:06:20;14.60;99.90
34153;DHT22;20426;48.372;10.888;2022-10-19T01:06:53;14.60;99.90
34153;DHT22;20426;48.372;10.888;2022-10-19T01:07:24;14.60;99.90
34153;DHT22;20426;48.372;10.888;2022-10-19T01:07:56;14.60;99.90
34153;DHT22;20426;48.372;10.888;2022-10-19T01:08:27;14.60;99.90
34153;DHT22;20426;48.372;10.888;2022-10-19T01:08:58;14.60;99.90
34153;DHT22;20426;48.372;10.888;2022-10-19T01:09:29;14.60;99.90
34153;DHT22;20426;48.372;10.888;2022-10-19T01:10:00;14.50;99.90
34153;DHT22;20426;48.372;10.888;2022-10-19T01:12:00;14.60;99.90
34153;DHT22;20426;48.372;10.888;2022-10-19T01:13:05;14.60;99.90
34153;DHT22;20426;48.372;10.888;2022-10-19T01:15:52;14.60;99.90
34153;DHT22;20426;48.372;10.888;2022-10-19T01:21:27;14.60;99.90
34153;DHT22;20426;48.372;10.888;2022-10-19T01:24:34;14.60;99.90
34153;DHT22;20426;48.372;10.888;2022-10-19T01:26:19;14.60;99.90
34153;DHT22;20426;48.372;10.888;2022-10-19T01:29:07;14.60;99.90
34153;DHT22;20426;48.372;10.888;2022-10-19T01:31:41;14.50;99.90
34153;DHT22;20426;48.372;10.888;2022-10-19T01:31:55;14.60;99.90
34153;DHT22;20426;48.372;10.888;2022-10-19T01:35:51;14.60;99.90
34153;DHT22;20426;48.372;10.888;2022-10-19T01:36:38;14.60;99.90
34153;DHT22;20426;48.372;10.888;2022-10-19T01:37:22;14.60;99.90
34153;DHT22;20426;48.372;10.888;2022-10-19T01:38:01;14.60;99.90
34153;DHT22;20426;48.372;10.888;2022-10-19T01:38:54;14.60;99.90
34153;DHT22;20426;48.372;10.888;2022-10-19T01:39:51;14.70;99.90
34153;DHT22;20426;48.372;10.888;2022-10-19T01:40:40;14.60;99.90
34153;DHT22;20426;48.372;10.888;2022-10-19T01:41:32;14.70;99.90
34153;DHT22;20426;48.372;10.888;2022-10-19T01:43:15;14.70;99.90
34153;DHT22;20426;48.372;10.888;2022-10-19T01:43:52;14.70;99.90
34153;DHT22;20426;48.372;10.888;2022-10-19T01:44:51;14.70;99.90
34153;DHT22;20426;48.372;10.888;2022-10-19T01:45:40;14.70;99.90
34153;DHT22;20426;48.372;10.888;2022-10-19T01:46:37;14.70;99.90
34153;DHT22;20426;48.372;10.888;2022-10-19T01:47:18;14.70;99.90
34153;DHT22;20426;48.372;10.888;2022-10-19T01:47:58;14.70;99.90
34153;DHT22;20426;48.372;10.888;2022-10-19T01:48:34;14.70;99.90
34153;DHT22;20426;48.372;10.888;2022-10-19T01:49:24;14.60;99.90
34153;DHT22;20426;48.372;10.888;2022-10-19T01:50:04;14.60;99.90
34153;DHT22;20426;48.372;10.888;2022-10-19T01:50:44;14.60;99.90
34153;DHT22;20426;48.372;10.888;2022-10-19T01:51:22;14.60;99.90
34153;DHT22;20426;48.372;10.888;2022-10-19T01:51:59;14.60;99.90
34153;DHT22;20426;48.372;10.888;2022-10-19T01:52:32;14.50;99.90
34153;DHT22;20426;48.372;10.888;2022-10-19T01:53:05;14.50;99.90
34153;DHT22;20426;48.372;10.888;2022-10-19T01:53:41;14.60;99.90
34153;DHT22;20426;48.372;10.888;2022-10-19T01:54:15;14.60;99.90
34153;DHT22;20426;48.372;10.888;2022-10-19T01:54:51;14.60;99.90
34153;DHT22;20426;48.372;10.888;2022-10-19T01:55:24;14.50;99.90
34153;DHT22;20426;48.372;10.888;2022-10-19T01:55:57;14.50;99.90
34153;DHT22;20426;48.372;10.888;2022-10-19T01:56:30;14.50;99.90
34153;DHT22;20426;48.372;10.888;2022-10-19T01:57:04;14.60;99.90
34153;DHT22;20426;48.372;10.888;2022-10-19T01:57:40;14.60;99.90
34153;DHT22;20426;48.372;10.888;2022-10-19T01:58:16;14.60;99.90
34153;DHT22;20426;48.372;10.888;2022-10-19T01:58:48;14.60;99.90
34153;DHT22;20426;48.372;10.888;2022-10-19T01:59:21;14.60;99.90
34153;DHT22;20426;48.372;10.888;2022-10-19T01:59:53;14.60;99.90
34153;DHT22;20426;48.372;10.888;2022-10-19T02:00:27;14.60;99.90
34153;DHT22;20426;48.372;10.888;2022-10-19T02:01:03;14.60;99.90
34153;DHT22;20426;48.372;10.888;2022-10-19T02:01:36;14.60;99.90
34153;DHT22;20426;48.372;10.888;2022-10-19T02:02:11;14.50;99.90
34153;DHT22;20426;48.372;10.888;2022-10-19T02:02:46;14.60;99.90
34153;DHT22;20426;48.372;10.888;2022-10-19T02:03:18;14.60;99.90
34153;DHT22;20426;48.372;10.888;2022-10-19T02:03:50;14.50;99.90
34153;DHT22;20426;48.372;10.888;2022-10-19T02:04:22;14.60;99.90
34153;DHT22;20426;48.372;10.888;2022-10-19T02:04:55;14.60;99.90
34153;DHT22;20426;48.372;10.888;2022-10-19T02:05:30;14.60;99.90
34153;DHT22;20426;48.372;10.888;2022-10-19T02:06:04;14.60;99.90
34153;DHT22;20426;48.372;10.888;2022-10-19T02:06:37;14.60;99.90
34153;DHT22;20426;48.372;10.888;2022-10-19T02:07:09;14.50;99.90
34153;DHT22;20426;48.372;10.888;2022-10-19T02:07:42;14.50;99.90
34153;DHT22;20426;48.372;10.888;2022-10-19T02:08:25;14.50;99.90
34153;DHT22;20426;48.372;10.888;2022-10-19T02:08:57;14.50;99.90
34153;DHT22;20426;48.372;10.888;2022-10-19T02:09:27;14.60;99.90
34153;DHT22;20426;48.372;10.888;2022-10-19T02:09:58;14.50;99.90
34153;DHT22;20426;48.372;10.888;2022-10-19T02:10:31;14.50;99.90
34153;DHT22;20426;48.372;10.888;2022-10-19T02:11:03;14.50;99.90
34153;DHT22;20426;48.372;10.888;2022-10-19T02:11:35;14.50;99.90
34153;DHT22;20426;48.372;10.888;2022-10-19T02:12:08;14.50;99.90
34153;DHT22;20426;48.372;10.888;2022-10-19T02:12:41;14.60;99.90
34153;DHT22;20426;48.372;10.888;2022-10-19T02:13:14;14.60;99.90
34153;DHT22;20426;48.372;10.888;2022-10-19T02:13:48;14.60;99.90
34153;DHT22;20426;48.372;10.888;2022-10-19T02:14:24;14.50;99.90
34153;DHT22;20426;48.372;10.888;2022-10-19T02:14:58;14.60;99.90
34153;DHT22;20426;48.372;10.888;2022-10-19T02:15:34;14.60;99.90
34153;DHT22;20426;48.372;10.888;2022-10-19T02:16:11;14.60;99.90
34153;DHT22;20426;48.372;10.888;2022-10-19T02:16:50;14.60;99.90
34153;DHT22;20426;48.372;10.888;2022-10-19T02:17:25;14.60;99.90
34153;DHT22;20426;48.372;10.888;2022-10-19T02:17:58;14.70;99.90
34153;DHT22;20426;48.372;10.888;2022-10-19T02:18:34;14.70;99.90
34153;DHT22;20426;48.372;10.888;2022-10-19T02:19:07;14.70;99.90
34153;DHT22;20426;48.372;10.888;2022-10-19T02:19:38;14.70;99.90
34153;DHT22;20426;48.372;10.888;2022-10-19T02:20:09;14.70;99.90
34153;DHT22;20426;48.372;10.888;2022-10-19T02:20:40;14.70;99.90
34153;DHT22;20426;48.372;10.888;2022-10-19T02:21:11;14.70;99.90
34153;DHT22;20426;48.372;10.888;2022-10-19T02:21:42;14.70;99.90
34153;DHT22;20426;48.372;10.888;2022-10-19T02:22:12;14.70;99.90
34153;DHT22;20426;48.372;10.888;2022-10-19T02:22:43;14.70;99.90
34153;DHT22;20426;48.372;10.888;2022-10-19T02:23:16;14.70;99.90
34153;DHT22;20426;48.372;10.888;2022-10-19T02:23:48;14.70;99.90
34153;DHT22;20426;48.372;10.888;2022-10-19T02:24:19;14.70;99.90
34153;DHT22;20426;48.372;10.888;2022-10-19T02:24:49;14.70;99.90
34153;DHT22;20426;48.372;10.888;2022-10-19T02:25:21;14.70;99.90
34153;DHT22;20426;48.372;10.888;2022-10-19T02:25:52;14.70;99.90
34153;DHT22;20426;48.372;10.888;2022-10-19T02:26:23;14.70;99.90
34153;DHT22;20426;48.372;10.888;2022-10-19T02:26:55;14.70;99.90
34153;DHT22;20426;48.372;10.888;2022-10-19T02:27:26;14.70;99.90
34153;DHT22;20426;48.372;10.888;2022-10-19T02:27:57;14.70;99.90
34153;DHT22;20426;48.372;10.888;2022-10-19T02:28:28;14.70;99.90
34153;DHT22;20426;48.372;10.888;2022-10-19T02:28:59;14.70;99.90
34153;DHT22;20426;48.372;10.888;2022-10-19T02:29:32;14.70;99.90
34153;DHT22;20426;48.372;10.888;2022-10-19T02:30:03;14.70;99.90
34153;DHT22;20426;48.372;10.888;2022-10-19T02:30:34;14.70;99.90
34153;DHT22;20426;48.372;10.888;2022-10-19T02:31:05;14.70;99.90
34153;DHT22;20426;48.372;10.888;2022-10-19T02:31:36;14.70;99.90
34153;DHT22;20426;48.372;10.888;2022-10-19T02:32:09;14.70;99.90
34153;DHT22;20426;48.372;10.888;2022-10-19T02:32:41;14.70;99.90
34153;DHT22;20426;48.372;10.888;2022-10-19T02:33:12;14.70;99.90
34153;DHT22;20426;48.372;10.888;2022-10-19T02:33:43;14.70;99.90
34153;DHT22;20426;48.372;10.888;2022-10-19T02:34:14;14.70;99.90
34153;DHT22;20426;48.372;10.888;2022-10-19T02:34:45;14.70;99.90
34153;DHT22;20426;48.372;10.888;2022-10-19T02:35:16;14.70;99.90
34153;DHT22;20426;48.372;10.888;2022-10-19T02:35:46;14.70;99.90
34153;DHT22;20426;48.372;10.888;2022-10-19T02:36:17;14.70;99.90
34153;DHT22;20426;48.372;10.888;2022-10-19T02:36:49;14.70;99.90
34153;DHT22;20426;48.372;10.888;2022-10-19T02:37:19;14.70;99.90
34153;DHT22;20426;48.372;10.888;2022-10-19T02:37:50;14.70;99.90
34153;DHT22;20426;48.372;10.888;2022-10-19T02:38:23;14.70;99.90
34153;DHT22;20426;48.372;10.888;2022-10-19T02:38:54;14.70;99.90
34153;DHT22;20426;48.372;10.888;2022-10-19T02:39:24;14.70;99.90
34153;DHT22;20426;48.372;10.888;2022-10-19T02:39:55;14.70;99.90
34153;DHT22;20426;48.372;10.888;2022-10-19T02:40:30;14.70;99.90
34153;DHT22;20426;48.372;10.888;2022-10-19T02:41:16;14.70;99.90
34153;DHT22;20426;48.372;10.888;2022-10-19T02:42:08;14.70;99.90
34153;DHT22;20426;48.372;10.888;2022-10-19T02:42:56;14.70;99.90
34153;DHT22;20426;48.372;10.888;2022-10-19T02:43:29;14.60;99.90
34153;DHT22;20426;48.372;10.888;2022-10-19T02:44:14;14.60;99.90
34153;DHT22;20426;48.372;10.888;2022-10-19T02:45:38;14.60;99.90
34153;DHT22;20426;48.372;10.888;2022-10-19T02:46:29;14.60;99.90
34153;DHT22;20426;48.372;10.888;2022-10-19T02:47:14;14.60;99.90
34153;DHT22;20426;48.372;10.888;2022-10-19T02:47:57;14.60;99.90
34153;DHT22;20426;48.372;10.888;2022-10-19T02:48:31;14.70;99.90
34153;DHT22;20426;48.372;10.888;2022-10-19T02:49:03;14.70;99.90
34153;DHT22;20426;48.372;10.888;2022-10-19T02:49:36;14.60;99.90
34153;DHT22;20426;48.372;10.888;2022-10-19T02:50:08;14.70;99.90
34153;DHT22;20426;48.372;10.888;2022-10-19T02:50:43;14.70;99.90
34153;DHT22;20426;48.372;10.888;2022-10-19T02:52:25;14.70;99.90
34153;DHT22;20426;48.372;10.888;2022-10-19T02:52:57;14.70;99.90
34153;DHT22;20426;48.372;10.888;2022-10-19T02:53:28;14.70;99.90
34153;DHT22;20426;48.372;10.888;2022-10-19T02:53:59;14.70;99.90
34153;DHT22;20426;48.372;10.888;2022-10-19T02:54:30;14.70;99.90
34153;DHT22;20426;48.372;10.888;2022-10-19T02:55:01;14.70;99.90
34153;DHT22;20426;48.372;10.888;2022-10-19T02:55:31;14.70;99.90
34153;DHT22;20426;48.372;10.888;2022-10-19T02:56:02;14.70;99.90
34153;DHT22;20426;48.372;10.888;2022-10-19T02:56:34;14.60;99.90
34153;DHT22;20426;48.372;10.888;2022-10-19T02:57:20;14.70;99.90
34153;DHT22;20426;48.372;10.888;2022-10-19T02:57:52;14.60;99.90
34153;DHT22;20426;48.372;10.888;2022-10-19T02:58:23;14.70;99.90
34153;DHT22;20426;48.372;10.888;2022-10-19T02:58:54;14.60;99.90
34153;DHT22;20426;48.372;10.888;2022-10-19T02:59:25;14.60;99.90
34153;DHT22;20426;48.372;10.888;2022-10-19T02:59:55;14.60;99.90
34153;DHT22;20426;48.372;10.888;2022-10-19T03:00:26;14.60;99.90
34153;DHT22;20426;48.372;10.888;2022-10-19T03:00:57;14.60;99.90
34153;DHT22;20426;48.372;10.888;2022-10-19T03:01:28;14.70;99.90
34153;DHT22;20426;48.372;10.888;2022-10-19T03:01:58;14.60;99.90
34153;DHT22;20426;48.372;10.888;2022-10-19T03:02:29;14.60;99.90
34153;DHT22;20426;48.372;10.888;2022-10-19T03:03:00;14.60;99.90
34153;DHT22;20426;48.372;10.888;2022-10-19T03:03:32;14.60;99.90
34153;DHT22;20426;48.372;10.888;2022-10-19T03:04:03;14.60;99.90
34153;DHT22;20426;48.372;10.888;2022-10-19T03:04:34;14.60;99.90
34153;DHT22;20426;48.372;10.888;2022-10-19T03:05:05;14.60;99.90
34153;DHT22;20426;48.372;10.888;2022-10-19T03:05:36;14.60;99.90
34153;DHT22;20426;48.372;10.888;2022-10-19T03:06:07;14.60;99.90
34153;DHT22;20426;48.372;10.888;2022-10-19T03:06:37;14.60;99.90
34153;DHT22;20426;48.372;10.888;2022-10-19T03:07:09;14.60;99.90
34153;DHT22;20426;48.372;10.888;2022-10-19T03:07:40;14.60;99.90
34153;DHT22;20426;48.372;10.888;2022-10-19T03:08:11;14.60;99.90
34153;DHT22;20426;48.372;10.888;2022-10-19T03:08:42;14.60;99.90
34153;DHT22;20426;48.372;10.888;2022-10-19T03:09:13;14.60;99.90
34153;DHT22;20426;48.372;10.888;2022-10-19T03:09:44;14.60;99.90
34153;DHT22;20426;48.372;10.888;2022-10-19T03:10:14;14.60;99.90
34153;DHT22;20426;48.372;10.888;2022-10-19T03:10:45;14.70;99.90
34153;DHT22;20426;48.372;10.888;2022-10-19T03:11:16;14.70;99.90
34153;DHT22;20426;48.372;10.888;2022-10-19T03:11:47;14.70;99.90
34153;DHT22;20426;48.372;10.888;2022-10-19T03:12:17;14.70;99.90
34153;DHT22;20426;48.372;10.888;2022-10-19T03:12:48;14.70;99.90
34153;DHT22;20426;48.372;10.888;2022-10-19T03:13:19;14.70;99.90
34153;DHT22;20426;48.372;10.888;2022-10-19T03:13:49;14.70;99.90
34153;DHT22;20426;48.372;10.888;2022-10-19T03:14:20;14.70;99.90
34153;DHT22;20426;48.372;10.888;2022-10-19T03:14:51;14.70;99.90
34153;DHT22;20426;48.372;10.888;2022-10-19T03:15:21;14.80;99.90
34153;DHT22;20426;48.372;10.888;2022-10-19T03:15:54;14.80;99.90
34153;DHT22;20426;48.372;10.888;2022-10-19T03:16:24;14.80;99.90
34153;DHT22;20426;48.372;10.888;2022-10-19T03:16:55;14.80;99.90
34153;DHT22;20426;48.372;10.888;2022-10-19T03:17:26;14.80;99.90
34153;DHT22;20426;48.372;10.888;2022-10-19T03:17:56;14.80;99.90
34153;DHT22;20426;48.372;10.888;2022-10-19T03:18:27;14.80;99.90
34153;DHT22;20426;48.372;10.888;2022-10-19T03:18:58;14.80;99.90
34153;DHT22;20426;48.372;10.888;2022-10-19T03:19:29;14.80;99.90
34153;DHT22;20426;48.372;10.888;2022-10-19T03:20:00;14.80;99.90
34153;DHT22;20426;48.372;10.888;2022-10-19T03:20:30;14.80;99.90
34153;DHT22;20426;48.372;10.888;2022-10-19T03:21:03;14.80;99.90
34153;DHT22;20426;48.372;10.888;2022-10-19T03:21:34;14.90;99.90
34153;DHT22;20426;48.372;10.888;2022-10-19T03:22:05;14.90;99.90
34153;DHT22;20426;48.372;10.888;2022-10-19T03:22:36;14.90;99.90
34153;DHT22;20426;48.372;10.888;2022-10-19T03:23:07;14.90;99.90
34153;DHT22;20426;48.372;10.888;2022-10-19T03:23:39;14.90;99.90
34153;DHT22;20426;48.372;10.888;2022-10-19T03:24:10;14.90;99.90
34153;DHT22;20426;48.372;10.888;2022-10-19T03:24:40;14.90;99.90
34153;DHT22;20426;48.372;10.888;2022-10-19T03:25:11;14.90;99.90
34153;DHT22;20426;48.372;10.888;2022-10-19T03:25:42;14.90;99.90
34153;DHT22;20426;48.372;10.888;2022-10-19T03:26:15;14.90;99.90
34153;DHT22;20426;48.372;10.888;2022-10-19T03:26:46;14.90;99.90
34153;DHT22;20426;48.372;10.888;2022-10-19T03:27:17;14.90;99.90
34153;DHT22;20426;48.372;10.888;2022-10-19T03:27:48;14.90;99.90
34153;DHT22;20426;48.372;10.888;2022-10-19T03:28:18;14.90;99.90
34153;DHT22;20426;48.372;10.888;2022-10-19T03:28:49;14.90;99.90
34153;DHT22;20426;48.372;10.888;2022-10-19T03:29:20;14.90;99.90
34153;DHT22;20426;48.372;10.888;2022-10-19T03:29:51;14.90;99.90
34153;DHT22;20426;48.372;10.888;2022-10-19T03:30:21;14.90;99.90
34153;DHT22;20426;48.372;10.888;2022-10-19T03:30:52;14.90;99.90
34153;DHT22;20426;48.372;10.888;2022-10-19T03:31:23;14.90;99.90
34153;DHT22;20426;48.372;10.888;2022-10-19T03:31:54;14.90;99.90
34153;DHT22;20426;48.372;10.888;2022-10-19T03:32:24;14.90;99.90
34153;DHT22;20426;48.372;10.888;2022-10-19T03:32:55;14.90;99.90
34153;DHT22;20426;48.372;10.888;2022-10-19T03:33:26;14.90;99.90
34153;DHT22;20426;48.372;10.888;2022-10-19T03:33:56;14.90;99.90
34153;DHT22;20426;48.372;10.888;2022-10-19T03:34:27;14.90;99.90
34153;DHT22;20426;48.372;10.888;2022-10-19T03:34:58;14.90;99.90
34153;DHT22;20426;48.372;10.888;2022-10-19T03:35:29;14.90;99.90
34153;DHT22;20426;48.372;10.888;2022-10-19T03:36:35;14.90;99.90
34153;DHT22;20426;48.372;10.888;2022-10-19T03:37:06;14.90;99.90
34153;DHT22;20426;48.372;10.888;2022-10-19T03:37:38;14.90;99.90
34153;DHT22;20426;48.372;10.888;2022-10-19T03:38:08;14.90;99.90
34153;DHT22;20426;48.372;10.888;2022-10-19T03:38:39;14.90;99.90
34153;DHT22;20426;48.372;10.888;2022-10-19T03:39:12;14.90;99.90
34153;DHT22;20426;48.372;10.888;2022-10-19T03:39:43;14.90;99.90
34153;DHT22;20426;48.372;10.888;2022-10-19T03:40:14;14.90;99.90
34153;DHT22;20426;48.372;10.888;2022-10-19T03:40:44;15.00;99.90
34153;DHT22;20426;48.372;10.888;2022-10-19T03:41:15;15.00;99.90
34153;DHT22;20426;48.372;10.888;2022-10-19T03:41:46;15.00;99.90
34153;DHT22;20426;48.372;10.888;2022-10-19T03:42:17;15.00;99.90
34153;DHT22;20426;48.372;10.888;2022-10-19T03:42:47;15.00;99.90
34153;DHT22;20426;48.372;10.888;2022-10-19T03:43:18;15.00;99.90
34153;DHT22;20426;48.372;10.888;2022-10-19T03:43:49;15.00;99.90
34153;DHT22;20426;48.372;10.888;2022-10-19T03:44:19;15.00;99.90
34153;DHT22;20426;48.372;10.888;2022-10-19T03:44:50;15.00;99.90
34153;DHT22;20426;48.372;10.888;2022-10-19T03:45:21;15.00;99.90
34153;DHT22;20426;48.372;10.888;2022-10-19T03:45:52;15.00;99.90
34153;DHT22;20426;48.372;10.888;2022-10-19T03:46:22;15.00;99.90
34153;DHT22;20426;48.372;10.888;2022-10-19T03:46:53;15.00;99.90
34153;DHT22;20426;48.372;10.888;2022-10-19T03:47:24;15.00;99.90
34153;DHT22;20426;48.372;10.888;2022-10-19T03:47:55;15.00;99.90
34153;DHT22;20426;48.372;10.888;2022-10-19T03:48:25;15.00;99.90
34153;DHT22;20426;48.372;10.888;2022-10-19T03:48:57;15.00;99.90
34153;DHT22;20426;48.372;10.888;2022-10-19T03:49:28;15.00;99.90